MA57 weather

Us Property & Fiscal Office Heliport
Natick, Massachusetts, United States

Public forecast

Using degrees Fahrenheit for public forecast. Weather courtesy of forecast.io.

METAR (pilot weather report)

Closest report is Norwood Memorial Airport, 10.2 nm (19.0 km) ESE. Retrieved 2019/09/15 12:53 UTC (11 minutes ago):

KOWD 151253Z 28007KT 10SM CLR 21/16 A3014 RMK AO2 SLP204 T02110161

TAF (pilot weather forecast)

Closest forecast is Laurence G Hanscom Field, 11.7 nm (21.7 km) NNE. Retrieved 2019/09/15 12:28 UTC (36 minutes ago):

TAF KBED 151126Z 1512/1612 27004KT P6SM SKC FM160000 27004KT P6SM BKN250 FM160400 00000KT P6SM SCT100